Time;durP1;ratioP1;P1;durP2;ratioP2;P2;SDS_P1;SDS_P2;PMS_P1;PMS_P2;Temp;Humidity;BMP_temperature;BMP_pressure;BME280_temperature;BME280_humidity;BME280_pressure;Samples;Min_cycle;Max_cycle;Signal;HPM_P1;HPM_P2
2023/10/28 00:01:11;;;;;;;10.77;10.57;;;11.20;1.00;;;;;;5081505;28;20951;-80
2023/10/28 00:03:41;;;;;;;10.53;10.33;;;11.20;1.00;;;;;;5083879;28;20494;-82
2023/10/28 00:06:10;;;;;;;10.60;10.40;;;11.20;99.90;;;;;;5080950;28;20454;-83
2023/10/28 00:08:39;;;;;;;10.10;9.90;;;11.20;99.90;;;;;;5074304;28;20536;-83
2023/10/28 00:11:08;;;;;;;10.20;10.00;;;11.20;1.00;;;;;;5083940;28;20466;-83
2023/10/28 00:13:39;;;;;;;10.10;9.90;;;11.20;99.90;;;;;;5086367;28;20535;-83
2023/10/28 00:16:08;;;;;;;10.50;10.30;;;11.20;99.90;;;;;;5081601;28;20459;-83
2023/10/28 00:18:37;;;;;;;10.17;9.97;;;11.20;1.00;;;;;;5084459;28;20445;-83
2023/10/28 00:21:07;;;;;;;10.40;10.20;;;11.20;1.00;;;;;;5082597;28;20458;-82
2023/10/28 00:23:36;;;;;;;10.20;10.00;;;11.20;99.90;;;;;;5081650;28;21005;-83
2023/10/28 00:26:05;;;;;;;9.90;9.70;;;11.20;99.90;;;;;;5077291;28;20450;-81
2023/10/28 00:28:34;;;;;;;10.53;10.20;;;11.20;99.90;;;;;;5078010;28;20822;-83
2023/10/28 00:31:03;;;;;;;10.47;10.27;;;11.20;99.90;;;;;;5083017;28;21142;-81
2023/10/28 00:33:34;;;;;;;10.47;10.20;;;11.20;1.00;;;;;;5082697;28;20518;-82
2023/10/28 00:36:09;;;;;;;10.43;10.23;;;11.30;1.00;;;;;;5083236;28;20571;-82
2023/10/28 00:38:37;;;;;;;10.50;10.30;;;11.30;1.00;;;;;;5080961;28;20453;-81
2023/10/28 00:41:06;;;;;;;10.70;10.50;;;11.30;1.00;;;;;;5079479;28;20496;-82
2023/10/28 00:43:34;;;;;;;10.87;10.63;;;11.20;99.90;;;;;;5077917;28;20444;-82
2023/10/28 00:46:03;;;;;;;10.50;10.30;;;11.20;99.90;;;;;;5078081;28;20447;-80
2023/10/28 00:48:32;;;;;;;10.40;10.20;;;11.20;1.00;;;;;;5081287;28;20844;-82
2023/10/28 00:51:01;;;;;;;10.80;10.50;;;11.20;1.00;;;;;;5081847;28;20532;-83
2023/10/28 00:53:31;;;;;;;10.37;10.17;;;11.20;1.00;;;;;;5077864;28;20519;-82
2023/10/28 00:56:01;;;;;;;10.57;10.37;;;11.20;1.00;;;;;;5079989;28;20450;-82
2023/10/28 00:58:31;;;;;;;10.90;10.60;;;11.20;1.00;;;;;;5078366;28;20517;-83
2023/10/28 01:00:59;;;;;;;10.83;10.63;;;11.10;1.00;;;;;;5080040;28;20478;-84
2023/10/28 01:03:30;;;;;;;11.00;10.70;;;11.20;1.00;;;;;;5080435;28;20443;-83
2023/10/28 01:05:59;;;;;;;10.57;10.37;;;11.20;1.00;;;;;;5081406;28;20972;-81
2023/10/28 01:08:28;;;;;;;10.93;10.63;;;11.20;1.00;;;;;;5081073;28;20459;-81
2023/10/28 01:11:02;;;;;;;10.77;10.57;;;11.10;1.00;;;;;;5078191;28;20486;-83
2023/10/28 01:13:31;;;;;;;10.80;10.60;;;11.10;1.00;;;;;;5081670;28;20486;-82
2023/10/28 01:16:00;;;;;;;10.77;10.47;;;11.20;1.00;;;;;;5079205;28;20439;-82
2023/10/28 01:18:28;;;;;;;11.30;11.00;;;11.20;1.00;;;;;;5078865;28;20456;-82
2023/10/28 01:20:57;;;;;;;10.60;10.40;;;11.10;1.00;;;;;;5081997;28;20446;-83
2023/10/28 01:23:27;;;;;;;10.60;10.40;;;11.10;1.00;;;;;;5082063;28;20427;-82
2023/10/28 01:25:55;;;;;;;11.00;10.80;;;11.10;1.00;;;;;;5081405;28;20447;-81
2023/10/28 01:28:23;;;;;;;10.53;10.33;;;11.00;1.00;;;;;;5078792;28;20460;-82
2023/10/28 01:30:51;;;;;;;10.40;10.10;;;11.00;99.90;;;;;;5081093;28;20454;-82
2023/10/28 01:33:20;;;;;;;10.23;10.00;;;11.00;99.90;;;;;;5079039;28;20463;-82
2023/10/28 01:35:48;;;;;;;10.70;10.40;;;11.10;99.90;;;;;;5081290;28;20475;-83
2023/10/28 01:38:17;;;;;;;10.87;10.67;;;11.00;99.90;;;;;;5079173;28;20478;-82
2023/10/28 01:40:46;;;;;;;11.00;10.80;;;11.10;99.90;;;;;;5075017;28;20489;-82
2023/10/28 01:43:16;;;;;;;10.60;10.30;;;11.10;99.90;;;;;;5077695;28;20459;-82
2023/10/28 01:45:44;;;;;;;10.80;10.60;;;11.00;99.90;;;;;;5078485;28;20497;-81
2023/10/28 01:48:13;;;;;;;10.90;10.60;;;11.00;99.90;;;;;;5080027;28;20490;-82
2023/10/28 01:50:42;;;;;;;10.87;10.50;;;11.10;99.90;;;;;;5080708;28;20451;-81
2023/10/28 01:53:10;;;;;;;10.90;10.70;;;11.00;99.90;;;;;;5081108;28;20455;-81
2023/10/28 01:55:39;;;;;;;10.90;10.70;;;11.00;99.90;;;;;;5079411;28;20514;-81
2023/10/28 01:58:09;;;;;;;11.00;10.70;;;11.00;99.90;;;;;;5081817;28;20462;-81
2023/10/28 02:00:37;;;;;;;10.93;10.73;;;11.00;99.90;;;;;;5080438;28;20454;-81
2023/10/28 02:03:08;;;;;;;10.63;10.43;;;11.10;99.90;;;;;;5083195;28;20493;-81
2023/10/28 02:05:37;;;;;;;10.80;10.50;;;11.10;99.90;;;;;;5083905;28;20474;-81
2023/10/28 02:08:06;;;;;;;11.07;10.80;;;11.10;99.90;;;;;;5077855;28;20562;-81
2023/10/28 02:10:35;;;;;;;11.40;11.10;;;11.10;89.20;;;;;;5083478;28;20487;-82
2023/10/28 02:13:04;;;;;;;10.80;10.50;;;11.10;1.00;;;;;;5084081;28;20516;-81
2023/10/28 02:15:34;;;;;;;11.20;10.93;;;11.10;7.90;;;;;;5081257;28;20481;-82
2023/10/28 02:18:03;;;;;;;11.10;10.80;;;11.10;1.00;;;;;;5084754;28;21070;-82
2023/10/28 02:20:33;;;;;;;10.63;10.40;;;11.00;1.00;;;;;;5082613;28;20445;-81
2023/10/28 02:23:01;;;;;;;11.10;10.80;;;11.10;1.00;;;;;;5084118;28;20448;-81
2023/10/28 02:25:29;;;;;;;12.00;11.70;;;11.00;1.00;;;;;;5079591;28;20461;-81
2023/10/28 02:27:58;;;;;;;11.20;10.90;;;11.10;1.00;;;;;;5080124;28;20995;-82
2023/10/28 02:30:26;;;;;;;11.53;11.13;;;11.10;99.90;;;;;;5084392;28;20835;-82
2023/10/28 02:32:55;;;;;;;11.40;11.10;;;11.10;99.90;;;;;;5084976;28;20465;-81
2023/10/28 02:35:24;;;;;;;10.90;10.60;;;11.10;87.10;;;;;;5081238;28;20463;-81
2023/10/28 02:37:52;;;;;;;12.30;11.57;;;11.10;1.00;;;;;;5083754;28;21196;-80
2023/10/28 02:40:20;;;;;;;11.80;11.20;;;11.10;92.20;;;;;;5082208;28;20495;-79
2023/10/28 02:42:48;;;;;;;11.03;10.83;;;11.20;52.40;;;;;;5087520;28;20454;-79
2023/10/28 02:45:16;;;;;;;11.67;11.37;;;11.20;1.00;;;;;;5079084;28;20653;-81
2023/10/28 02:47:45;;;;;;;11.30;10.80;;;11.20;1.00;;;;;;5073082;28;20478;-81
2023/10/28 02:50:14;;;;;;;11.20;10.90;;;11.20;1.00;;;;;;5078614;28;20458;-81
2023/10/28 02:52:43;;;;;;;11.50;11.10;;;11.10;1.00;;;;;;5082684;28;20450;-80
2023/10/28 02:55:11;;;;;;;11.13;10.83;;;11.10;1.00;;;;;;5080941;28;21028;-80
2023/10/28 02:57:39;;;;;;;11.80;11.40;;;11.20;37.10;;;;;;5087929;28;20475;-81
2023/10/28 03:00:09;;;;;;;11.83;11.40;;;11.10;1.00;;;;;;5085925;28;20523;-80
2023/10/28 03:02:37;;;;;;;11.87;11.53;;;11.10;1.00;;;;;;5081383;28;20450;-80
2023/10/28 03:05:06;;;;;;;12.50;11.90;;;11.20;1.00;;;;;;5079050;28;20455;-80
2023/10/28 03:07:35;;;;;;;12.43;11.80;;;11.10;10.80;;;;;;5078528;28;20484;-79
2023/10/28 03:10:04;;;;;;;12.10;11.80;;;11.10;1.00;;;;;;5078735;28;20469;-80
2023/10/28 03:12:32;;;;;;;12.30;11.90;;;11.10;99.90;;;;;;5081453;28;20462;-79
2023/10/28 03:15:00;;;;;;;12.87;12.20;;;11.10;1.00;;;;;;5086663;28;20474;-81
2023/10/28 03:17:29;;;;;;;11.60;11.30;;;11.10;93.20;;;;;;5080801;28;20569;-81
2023/10/28 03:19:57;;;;;;;13.33;12.83;;;11.20;86.80;;;;;;5080351;28;20463;-81
2023/10/28 03:22:25;;;;;;;13.80;13.20;;;11.20;10.20;;;;;;5084139;28;20454;-81
2023/10/28 03:24:55;;;;;;;11.90;11.60;;;11.20;18.80;;;;;;5077801;28;20451;-82
2023/10/28 03:27:23;;;;;;;12.03;11.63;;;11.20;1.00;;;;;;5075881;28;21803;-81
2023/10/28 03:29:52;;;;;;;12.20;11.80;;;11.20;99.90;;;;;;5078747;28;20473;-82
2023/10/28 03:32:20;;;;;;;13.23;12.73;;;11.20;99.90;;;;;;5079278;28;20553;-81
2023/10/28 03:34:49;;;;;;;12.70;12.10;;;11.20;31.90;;;;;;5077975;28;20469;-81
2023/10/28 03:37:17;;;;;;;11.70;11.30;;;11.10;99.90;;;;;;5085434;28;20462;-81
2023/10/28 03:39:45;;;;;;;13.10;12.60;;;11.10;99.90;;;;;;5087461;28;20459;-79
2023/10/28 03:42:15;;;;;;;12.50;11.80;;;11.20;99.90;;;;;;5085666;28;20477;-82
2023/10/28 03:44:43;;;;;;;12.17;11.80;;;11.20;89.40;;;;;;5082034;28;20458;-83
2023/10/28 03:47:11;;;;;;;13.27;12.87;;;11.20;99.90;;;;;;5080714;28;20479;-82
2023/10/28 03:49:39;;;;;;;12.30;11.90;;;11.20;98.50;;;;;;5077216;28;20439;-83
2023/10/28 03:52:07;;;;;;;12.63;11.97;;;11.20;1.00;;;;;;5080264;28;20488;-82
2023/10/28 03:54:36;;;;;;;12.70;11.90;;;11.20;1.00;;;;;;5081792;28;20439;-82
2023/10/28 03:57:04;;;;;;;12.23;11.83;;;11.20;10.80;;;;;;5080392;28;20585;-80
2023/10/28 03:59:34;;;;;;;12.13;11.70;;;11.20;1.00;;;;;;5078330;28;20435;-81
2023/10/28 04:02:03;;;;;;;11.83;11.40;;;11.20;1.00;;;;;;5076145;28;20487;-80
2023/10/28 04:04:31;;;;;;;12.07;11.67;;;11.20;1.00;;;;;;5083043;28;20519;-82
2023/10/28 04:06:59;;;;;;;11.87;11.30;;;11.20;1.00;;;;;;5082497;28;20470;-81
2023/10/28 04:09:28;;;;;;;11.87;11.47;;;11.10;1.00;;;;;;5076803;28;20980;-81
2023/10/28 04:11:56;;;;;;;12.60;11.90;;;11.20;1.00;;;;;;5082241;28;20734;-82
2023/10/28 04:14:25;;;;;;;12.17;11.87;;;11.20;1.00;;;;;;5077400;28;20450;-83
2023/10/28 04:16:54;;;;;;;12.20;11.80;;;11.20;1.00;;;;;;5079415;28;20475;-82
2023/10/28 04:19:22;;;;;;;11.87;11.47;;;11.20;99.90;;;;;;5074799;28;21172;-81
2023/10/28 04:21:50;;;;;;;11.70;11.40;;;11.20;99.90;;;;;;5081142;28;20617;-82
2023/10/28 04:24:19;;;;;;;11.53;11.33;;;11.20;99.90;;;;;;5077822;28;20462;-83
2023/10/28 04:26:47;;;;;;;11.70;11.27;;;11.10;99.90;;;;;;5081846;28;20483;-82
2023/10/28 04:29:15;;;;;;;11.53;11.30;;;11.10;99.90;;;;;;5078214;28;20970;-83
2023/10/28 04:31:43;;;;;;;11.70;11.40;;;11.10;99.90;;;;;;5078407;28;20472;-81
2023/10/28 04:34:13;;;;;;;12.00;11.60;;;11.10;99.90;;;;;;5077987;28;20442;-81
2023/10/28 04:36:41;;;;;;;11.90;11.60;;;11.10;99.90;;;;;;5078372;28;20827;-84
2023/10/28 04:39:09;;;;;;;12.03;11.43;;;11.10;99.90;;;;;;5079575;28;20495;-81
2023/10/28 04:41:37;;;;;;;11.80;11.50;;;11.10;99.90;;;;;;5079532;28;20453;-82
2023/10/28 04:44:06;;;;;;;11.90;11.50;;;11.20;99.90;;;;;;5083742;28;20459;-82
2023/10/28 04:46:34;;;;;;;12.00;11.70;;;11.10;99.90;;;;;;5082167;28;20466;-82
2023/10/28 04:49:02;;;;;;;11.70;11.30;;;11.10;99.90;;;;;;5086233;28;20457;-82
2023/10/28 04:51:32;;;;;;;12.13;11.60;;;11.10;99.90;;;;;;5087418;28;20546;-82
2023/10/28 04:54:00;;;;;;;12.27;11.70;;;11.00;99.90;;;;;;5076508;28;20451;-82
2023/10/28 04:56:28;;;;;;;12.30;11.77;;;11.10;99.90;;;;;;5084947;28;20474;-82
2023/10/28 04:58:56;;;;;;;12.20;11.80;;;11.10;98.40;;;;;;5079105;28;20484;-80
2023/10/28 05:01:25;;;;;;;12.00;11.70;;;11.10;79.00;;;;;;5082183;28;20483;-82
2023/10/28 05:03:53;;;;;;;12.57;12.07;;;11.10;90.60;;;;;;5079225;28;20554;-82
2023/10/28 05:06:21;;;;;;;11.60;11.20;;;11.10;54.90;;;;;;5082921;28;20466;-82
2023/10/28 05:08:51;;;;;;;11.80;11.40;;;11.10;54.90;;;;;;5075309;28;20827;-81
2023/10/28 05:11:20;;;;;;;11.60;11.40;;;11.10;45.20;;;;;;5081329;28;20489;-81
2023/10/28 05:13:48;;;;;;;11.63;11.43;;;11.10;34.40;;;;;;5080032;28;20453;-82
2023/10/28 05:16:16;;;;;;;11.53;11.23;;;11.10;1.00;;;;;;5079991;28;20478;-82
2023/10/28 05:18:45;;;;;;;11.53;11.20;;;11.10;6.70;;;;;;5076261;28;20942;-82
2023/10/28 05:21:14;;;;;;;12.57;12.23;;;11.10;1.00;;;;;;5073725;28;20455;-81
2023/10/28 05:23:44;;;;;;;11.90;11.50;;;11.10;1.00;;;;;;5075491;28;20479;-81
2023/10/28 05:26:13;;;;;;;11.93;11.53;;;11.10;5.10;;;;;;5078723;28;20536;-83
2023/10/28 05:28:42;;;;;;;11.07;10.87;;;11.10;15.30;;;;;;5080687;28;20534;-82
2023/10/28 05:31:10;;;;;;;11.60;11.20;;;11.10;1.00;;;;;;5080267;28;20461;-82
2023/10/28 05:33:39;;;;;;;11.47;11.17;;;11.10;1.00;;;;;;5076632;28;20529;-82
2023/10/28 05:36:08;;;;;;;11.43;11.13;;;11.10;1.90;;;;;;5075247;28;20498;-82
2023/10/28 05:38:36;;;;;;;11.30;11.00;;;11.10;20.20;;;;;;5078668;28;20479;-82
2023/10/28 05:41:04;;;;;;;11.60;11.20;;;11.10;14.20;;;;;;5078059;28;20446;-81
2023/10/28 05:43:34;;;;;;;12.60;11.80;;;11.10;19.00;;;;;;5076423;28;20505;-82
2023/10/28 05:46:03;;;;;;;11.70;11.30;;;11.00;14.70;;;;;;5075198;28;20448;-80
2023/10/28 05:48:32;;;;;;;11.17;10.70;;;11.00;35.90;;;;;;5077032;28;20505;-83
2023/10/28 05:51:02;;;;;;;11.77;11.20;;;11.00;66.50;;;;;;5079654;28;20970;-81
2023/10/28 05:53:31;;;;;;;10.90;10.53;;;11.00;34.70;;;;;;5076536;28;20500;-83
2023/10/28 05:55:59;;;;;;;11.10;10.80;;;11.10;53.80;;;;;;5077159;28;20535;-81
2023/10/28 05:58:27;;;;;;;10.93;10.67;;;11.00;21.20;;;;;;5078842;28;20556;-82
2023/10/28 06:00:59;;;;;;;11.50;11.00;;;11.00;35.40;;;;;;5076921;28;20462;-83
2023/10/28 06:03:28;;;;;;;10.90;10.70;;;11.10;26.10;;;;;;5073982;28;20458;-82
2023/10/28 06:05:56;;;;;;;11.57;11.23;;;11.10;52.80;;;;;;5077375;28;20447;-81
2023/10/28 06:08:24;;;;;;;11.00;10.60;;;11.10;76.70;;;;;;5076717;28;20479;-83
2023/10/28 06:10:53;;;;;;;10.90;10.70;;;11.10;26.50;;;;;;5078011;28;20454;-81
2023/10/28 06:13:21;;;;;;;11.30;10.90;;;11.10;52.90;;;;;;5078020;28;20550;-82
2023/10/28 06:15:49;;;;;;;11.40;11.00;;;11.10;19.20;;;;;;5073561;28;20459;-82
2023/10/28 06:18:19;;;;;;;11.30;10.90;;;11.10;53.00;;;;;;5075997;28;21019;-81
2023/10/28 06:20:47;;;;;;;11.20;10.80;;;11.10;61.70;;;;;;5078874;28;20458;-82
2023/10/28 06:23:15;;;;;;;11.57;11.07;;;11.20;53.90;;;;;;5076174;28;20979;-81
2023/10/28 06:25:44;;;;;;;11.43;10.93;;;11.20;41.50;;;;;;5078278;28;20943;-82
2023/10/28 06:28:12;;;;;;;11.88;11.48;;;11.20;45.70;;;;;;5074702;28;21086;-81
2023/10/28 06:30:47;;;;;;;11.73;11.33;;;11.20;52.40;;;;;;5071258;28;20207;-80
2023/10/28 06:33:15;;;;;;;11.80;11.30;;;11.30;3.80;;;;;;5081913;28;20453;-81
2023/10/28 06:35:45;;;;;;;10.93;10.70;;;11.30;1.30;;;;;;5081254;28;20454;-81
2023/10/28 06:38:14;;;;;;;11.40;11.00;;;11.30;23.00;;;;;;5076881;28;20467;-81
2023/10/28 06:40:42;;;;;;;11.93;11.60;;;11.20;13.90;;;;;;5075960;28;20533;-80
2023/10/28 06:43:11;;;;;;;11.70;11.30;;;11.20;13.90;;;;;;5071598;28;20512;-83
2023/10/28 06:45:39;;;;;;;11.03;10.70;;;11.20;57.50;;;;;;5072968;28;20479;-82
2023/10/28 06:48:07;;;;;;;11.00;10.70;;;11.20;48.40;;;;;;5071905;28;21003;-83
2023/10/28 06:50:36;;;;;;;10.93;10.63;;;11.30;55.60;;;;;;5072663;28;20528;-83
2023/10/28 06:53:09;;;;;;;10.50;10.20;;;11.20;55.40;;;;;;5072882;28;20458;-82
2023/10/28 06:55:37;;;;;;;11.43;10.83;;;11.20;54.50;;;;;;5080978;28;20482;-83
2023/10/28 06:58:05;;;;;;;11.60;11.20;;;11.30;37.60;;;;;;5071258;28;20434;-81
2023/10/28 07:00:34;;;;;;;10.70;10.40;;;11.30;43.20;;;;;;5071964;28;20200;-80
2023/10/28 07:03:02;;;;;;;11.13;10.67;;;11.40;35.20;;;;;;5069455;28;20879;-80
2023/10/28 07:05:30;;;;;;;11.03;10.40;;;11.50;9.20;;;;;;5076632;28;20457;-80
2023/10/28 07:07:59;;;;;;;10.33;10.03;;;11.50;1.00;;;;;;5072979;28;20553;-82
2023/10/28 07:10:29;;;;;;;10.70;10.23;;;11.50;1.00;;;;;;5076153;28;20455;-82
2023/10/28 07:12:57;;;;;;;10.77;10.47;;;11.50;1.00;;;;;;5074306;28;20554;-82
2023/10/28 07:15:26;;;;;;;11.13;10.70;;;11.50;1.00;;;;;;5077984;28;20558;-81
2023/10/28 07:17:54;;;;;;;11.03;10.60;;;11.60;1.00;;;;;;5082798;28;20486;-83
2023/10/28 07:20:23;;;;;;;11.10;10.50;;;11.60;1.00;;;;;;5078524;28;20462;-83
2023/10/28 07:22:51;;;;;;;11.10;10.60;;;11.60;1.00;;;;;;5077980;28;20459;-82
2023/10/28 07:25:19;;;;;;;10.77;10.30;;;11.70;1.00;;;;;;5077814;28;20450;-82
2023/10/28 07:27:49;;;;;;;10.33;10.13;;;11.80;1.00;;;;;;5078043;28;21099;-84
2023/10/28 07:30:18;;;;;;;10.77;10.47;;;11.90;1.00;;;;;;5076575;28;20477;-83
2023/10/28 07:32:46;;;;;;;10.67;10.30;;;12.10;1.00;;;;;;5077824;28;20481;-83
2023/10/28 07:35:16;;;;;;;10.53;10.13;;;12.20;1.00;;;;;;5077606;28;20465;-85
2023/10/28 07:37:46;;;;;;;12.43;11.73;;;12.30;1.00;;;;;;5076319;28;20865;-83
2023/10/28 07:40:14;;;;;;;11.03;10.53;;;12.40;1.00;;;;;;5075850;28;20462;-81
2023/10/28 07:42:44;;;;;;;11.30;10.80;;;12.60;1.00;;;;;;5069721;28;20467;-80
2023/10/28 07:45:14;;;;;;;10.97;10.50;;;12.70;1.00;;;;;;5074781;28;20473;-80
2023/10/28 07:47:42;;;;;;;10.77;10.47;;;12.80;1.00;;;;;;5075387;28;20459;-78
2023/10/28 07:50:10;;;;;;;10.63;10.40;;;12.90;1.00;;;;;;5070548;28;20470;-80
2023/10/28 07:52:39;;;;;;;10.40;10.20;;;13.10;1.00;;;;;;5064040;28;21085;-79
2023/10/28 07:55:07;;;;;;;11.10;10.80;;;13.30;1.00;;;;;;5067229;28;21097;-78
2023/10/28 07:57:36;;;;;;;10.43;10.13;;;13.40;1.00;;;;;;5071437;28;20491;-80
2023/10/28 08:00:06;;;;;;;10.00;9.80;;;13.30;99.90;;;;;;5075195;28;20462;-79
2023/10/28 08:02:35;;;;;;;10.10;9.90;;;13.40;1.00;;;;;;5069209;28;20457;-78
2023/10/28 08:05:04;;;;;;;10.80;10.27;;;13.60;99.90;;;;;;5075343;28;20467;-80
2023/10/28 08:07:32;;;;;;;10.10;9.70;;;13.80;99.90;;;;;;5070522;28;20467;-79
2023/10/28 08:10:00;;;;;;;9.60;9.30;;;13.70;99.90;;;;;;5075568;28;20443;-79
2023/10/28 08:12:28;;;;;;;9.63;9.17;;;13.70;99.90;;;;;;5073064;28;20459;-77
2023/10/28 08:14:57;;;;;;;10.10;9.80;;;14.00;99.90;;;;;;5074247;28;20471;-76
2023/10/28 08:17:25;;;;;;;10.43;9.77;;;14.00;99.90;;;;;;5070783;28;20901;-76
2023/10/28 08:19:57;;;;;;;9.80;9.50;;;13.70;99.90;;;;;;5075422;28;20454;-75
2023/10/28 08:22:25;;;;;;;9.37;9.17;;;13.40;99.90;;;;;;5072580;28;20578;-77
2023/10/28 08:24:54;;;;;;;9.90;9.60;;;13.40;99.90;;;;;;5068548;28;20458;-80
2023/10/28 08:27:22;;;;;;;10.60;10.10;;;13.30;99.90;;;;;;5074526;28;20477;-78
2023/10/28 08:29:51;;;;;;;9.67;9.37;;;13.20;99.90;;;;;;5071749;28;20586;-79
2023/10/28 08:32:19;;;;;;;10.17;9.70;;;13.10;99.90;;;;;;5077956;28;20462;-80
2023/10/28 08:34:48;;;;;;;10.57;9.83;;;13.00;99.90;;;;;;5074865;28;20451;-79
2023/10/28 08:37:21;;;;;;;10.60;10.03;;;13.30;99.90;;;;;;5070253;28;21096;-80
2023/10/28 08:39:49;;;;;;;9.60;9.30;;;13.30;99.90;;;;;;5066731;28;20835;-79
2023/10/28 08:42:17;;;;;;;10.00;9.40;;;13.30;99.90;;;;;;5066405;28;20982;-80
2023/10/28 08:44:48;;;;;;;10.43;9.63;;;13.20;99.90;;;;;;5075061;28;20489;-79
2023/10/28 08:47:22;;;;;;;10.70;10.30;;;13.20;99.90;;;;;;5071878;28;20471;-81
2023/10/28 08:49:53;;;;;;;10.13;9.93;;;13.20;99.90;;;;;;5071830;28;20482;-79
2023/10/28 08:52:24;;;;;;;10.20;10.00;;;13.10;99.90;;;;;;5072037;28;21042;-80
2023/10/28 08:54:54;;;;;;;10.33;9.97;;;13.00;99.90;;;;;;5070450;28;20557;-82
2023/10/28 08:57:23;;;;;;;9.77;9.57;;;13.10;99.90;;;;;;5077830;28;20853;-79
2023/10/28 08:59:53;;;;;;;9.20;8.90;;;13.20;99.90;;;;;;5078246;28;20455;-82
2023/10/28 09:02:24;;;;;;;9.80;9.40;;;13.20;99.90;;;;;;5079139;28;20948;-81
2023/10/28 09:04:53;;;;;;;9.57;9.27;;;13.20;99.90;;;;;;5072621;28;21000;-81
2023/10/28 09:07:23;;;;;;;9.57;9.17;;;13.30;99.90;;;;;;5073296;28;20490;-81
2023/10/28 09:09:59;;;;;;;9.30;8.97;;;13.30;99.90;;;;;;5074180;28;20455;-81
2023/10/28 09:12:28;;;;;;;9.13;8.90;;;13.30;99.90;;;;;;5075204;28;20490;-82
2023/10/28 09:14:56;;;;;;;9.90;9.50;;;13.30;99.90;;;;;;5076280;28;20556;-82
2023/10/28 09:17:24;;;;;;;9.97;9.50;;;13.40;99.90;;;;;;5077052;28;20487;-81
2023/10/28 09:19:53;;;;;;;10.80;10.40;;;13.30;99.90;;;;;;5075076;28;21489;-83
2023/10/28 09:22:24;;;;;;;9.67;9.37;;;13.10;99.90;;;;;;5081709;28;20499;-83
2023/10/28 09:24:55;;;;;;;10.00;9.57;;;13.00;99.90;;;;;;5077147;28;21819;-80
2023/10/28 09:27:24;;;;;;;9.80;9.40;;;13.10;99.90;;;;;;5073649;28;21101;-82
2023/10/28 09:30:03;;;;;;;10.50;10.10;;;13.10;99.90;;;;;;5072556;28;20454;-81
2023/10/28 09:32:33;;;;;;;10.00;9.63;;;13.30;99.90;;;;;;5074872;28;20193;-81
2023/10/28 09:35:05;;;;;;;9.53;9.23;;;13.90;99.90;;;;;;5080979;28;20463;-81
2023/10/28 09:37:36;;;;;;;9.60;9.30;;;14.20;99.90;;;;;;5078783;28;23007;-82
2023/10/28 09:40:07;;;;;;;9.63;9.03;;;14.30;99.90;;;;;;5070825;28;20439;-81
2023/10/28 09:42:37;;;;;;;9.57;9.20;;;14.30;99.90;;;;;;5075844;28;20534;-81
2023/10/28 09:45:08;;;;;;;8.73;8.43;;;14.30;99.90;;;;;;5077327;28;20466;-80
2023/10/28 09:47:48;;;;;;;9.10;8.80;;;14.10;99.90;;;;;;5076922;28;20482;-80
2023/10/28 09:50:21;;;;;;;8.93;8.70;;;14.20;99.90;;;;;;5078541;28;20446;-81
2023/10/28 09:52:53;;;;;;;9.37;9.13;;;14.20;99.90;;;;;;5080122;28;21030;-82
2023/10/28 09:55:26;;;;;;;9.40;8.90;;;14.70;99.90;;;;;;5077800;28;20455;-82
2023/10/28 09:58:01;;;;;;;9.87;9.13;;;14.80;99.90;;;;;;5074941;28;20573;-82
2023/10/28 10:00:31;;;;;;;9.50;9.30;;;14.80;99.90;;;;;;5074332;28;20493;-82
2023/10/28 10:03:17;;;;;;;8.90;8.70;;;16.10;99.90;;;;;;5078082;28;20465;-82
2023/10/28 10:05:46;;;;;;;9.10;8.80;;;17.60;99.90;;;;;;5077049;28;20480;-82
2023/10/28 10:08:19;;;;;;;9.00;8.80;;;18.50;99.90;;;;;;5073447;28;20460;-82
2023/10/28 10:10:49;;;;;;;8.77;8.20;;;18.40;99.90;;;;;;5077018;28;20455;-82
2023/10/28 10:13:18;;;;;;;8.53;7.90;;;17.80;99.90;;;;;;5077313;28;20523;-82
2023/10/28 10:16:00;;;;;;;8.50;8.20;;;16.90;99.90;;;;;;5072489;28;20446;-82
2023/10/28 10:18:33;;;;;;;8.00;7.80;;;16.40;99.90;;;;;;5077820;28;20489;-82
2023/10/28 10:21:07;;;;;;;9.10;8.50;;;15.90;99.90;;;;;;5072740;28;20475;-81
2023/10/28 10:23:43;;;;;;;8.10;7.90;;;15.50;99.90;;;;;;5077284;28;20545;-83
2023/10/28 10:26:22;;;;;;;8.20;7.90;;;15.30;99.90;;;;;;5077546;28;20453;-84
2023/10/28 10:28:53;;;;;;;7.73;7.43;;;15.00;99.90;;;;;;5086843;28;21030;-83
2023/10/28 10:31:24;;;;;;;8.47;7.97;;;14.80;99.90;;;;;;5076680;28;20984;-82
2023/10/28 10:34:04;;;;;;;8.00;7.73;;;14.70;99.90;;;;;;5074189;28;20450;-83
2023/10/28 10:36:35;;;;;;;8.30;8.00;;;14.60;99.90;;;;;;5073419;28;20511;-83
2023/10/28 10:39:14;;;;;;;7.70;7.50;;;14.60;99.90;;;;;;5076318;28;20467;-84
2023/10/28 10:41:44;;;;;;;9.00;8.70;;;14.50;99.90;;;;;;5078442;28;20455;-83
2023/10/28 10:44:24;;;;;;;8.53;8.20;;;14.40;99.90;;;;;;5076183;28;20439;-82
2023/10/28 10:46:56;;;;;;;9.80;9.30;;;14.40;99.90;;;;;;5073603;28;20461;-82
2023/10/28 10:49:24;;;;;;;9.20;8.90;;;14.40;99.90;;;;;;5075096;28;20451;-81
2023/10/28 10:51:53;;;;;;;9.47;9.20;;;14.50;99.90;;;;;;5073656;28;20481;-83
2023/10/28 10:54:29;;;;;;;9.00;8.60;;;14.50;99.90;;;;;;5070907;28;20494;-81
2023/10/28 10:56:58;;;;;;;9.53;9.13;;;14.50;99.90;;;;;;5075468;28;20463;-81
2023/10/28 10:59:28;;;;;;;8.80;8.50;;;14.50;99.90;;;;;;5072512;28;20474;-81
2023/10/28 11:01:57;;;;;;;9.30;9.00;;;14.20;99.90;;;;;;5069466;28;20492;-81
2023/10/28 11:04:26;;;;;;;8.70;8.30;;;14.20;99.90;;;;;;5073716;28;20875;-82
2023/10/28 11:06:55;;;;;;;9.23;8.73;;;14.20;99.90;;;;;;5071315;28;20479;-80
2023/10/28 11:09:25;;;;;;;9.00;8.60;;;14.20;99.90;;;;;;5071646;28;20522;-81
2023/10/28 11:11:55;;;;;;;8.20;8.00;;;14.10;99.90;;;;;;5069936;28;20463;-81
2023/10/28 11:14:24;;;;;;;7.70;7.50;;;14.20;99.90;;;;;;5071999;28;20463;-81
2023/10/28 11:16:53;;;;;;;13.20;12.40;;;14.20;99.90;;;;;;5070976;28;21790;-81
2023/10/28 11:19:21;;;;;;;8.60;8.37;;;14.20;99.90;;;;;;5073828;28;20511;-81
2023/10/28 11:21:50;;;;;;;8.07;7.80;;;14.20;99.90;;;;;;5077338;28;20459;-82
2023/10/28 11:24:19;;;;;;;8.97;8.57;;;14.30;99.90;;;;;;5075775;28;20466;-80
2023/10/28 11:26:48;;;;;;;8.43;7.97;;;14.20;99.90;;;;;;5077774;28;20574;-81
2023/10/28 11:29:17;;;;;;;8.13;7.60;;;14.30;99.90;;;;;;5083621;28;20569;-81
2023/10/28 11:31:46;;;;;;;8.30;8.10;;;14.20;99.90;;;;;;5077823;28;20459;-80
2023/10/28 11:34:15;;;;;;;9.43;8.90;;;14.20;99.90;;;;;;5072381;28;20462;-80
2023/10/28 11:36:43;;;;;;;9.30;8.80;;;14.20;99.90;;;;;;5074327;28;21049;-82
2023/10/28 11:39:13;;;;;;;9.40;8.90;;;14.20;99.90;;;;;;5074867;28;20537;-79
2023/10/28 11:41:47;;;;;;;8.17;7.97;;;14.20;99.90;;;;;;5072875;28;20511;-80
2023/10/28 11:44:18;;;;;;;9.00;8.50;;;14.20;99.90;;;;;;5073061;28;20453;-79
2023/10/28 11:46:47;;;;;;;8.20;7.80;;;14.20;99.90;;;;;;5070528;28;20482;-80
2023/10/28 11:49:16;;;;;;;9.43;8.63;;;14.10;99.90;;;;;;5071777;28;20542;-80
2023/10/28 11:51:44;;;;;;;8.60;8.20;;;14.30;99.90;;;;;;5070630;28;20461;-82
2023/10/28 11:54:13;;;;;;;9.43;8.47;;;14.30;99.90;;;;;;5069552;28;20458;-80
2023/10/28 11:56:41;;;;;;;8.23;7.83;;;14.20;99.90;;;;;;5070914;28;20567;-79
2023/10/28 11:59:11;;;;;;;8.57;8.17;;;14.20;99.90;;;;;;5072236;28;20612;-80
2023/10/28 12:01:41;;;;;;;9.60;8.97;;;14.20;99.90;;;;;;5074436;28;21299;-81
2023/10/28 12:04:09;;;;;;;8.60;8.10;;;14.10;99.90;;;;;;5081067;28;20466;-80
2023/10/28 12:06:37;;;;;;;8.10;7.90;;;14.20;99.90;;;;;;5073816;28;20471;-81
2023/10/28 12:09:11;;;;;;;9.07;8.57;;;14.20;99.90;;;;;;5076310;28;20493;-80
2023/10/28 12:11:39;;;;;;;9.00;8.13;;;14.20;99.90;;;;;;5072909;28;20474;-81
2023/10/28 12:14:08;;;;;;;8.60;8.17;;;14.20;99.90;;;;;;5075586;28;20448;-80
2023/10/28 12:16:37;;;;;;;8.50;7.83;;;14.10;99.90;;;;;;5075168;28;20899;-80
2023/10/28 12:19:08;;;;;;;8.10;7.70;;;14.10;99.90;;;;;;5078321;28;20450;-82
2023/10/28 12:21:38;;;;;;;7.80;7.50;;;14.10;99.90;;;;;;5075248;28;20458;-80
2023/10/28 12:24:07;;;;;;;8.90;8.20;;;14.20;99.90;;;;;;5071543;28;20550;-81
2023/10/28 12:26:36;;;;;;;9.00;8.60;;;14.20;99.90;;;;;;5069047;28;20454;-80
2023/10/28 12:29:05;;;;;;;9.40;8.90;;;14.20;99.90;;;;;;5077798;28;20200;-82
2023/10/28 12:31:34;;;;;;;10.23;9.27;;;14.20;99.90;;;;;;5077778;28;20447;-84
2023/10/28 12:34:03;;;;;;;10.07;9.30;;;14.20;99.90;;;;;;5076655;28;20448;-79
2023/10/28 12:36:33;;;;;;;9.73;9.10;;;14.20;99.90;;;;;;5073966;28;21079;-82
2023/10/28 12:39:02;;;;;;;9.00;8.60;;;14.10;99.90;;;;;;5071328;28;20512;-81
2023/10/28 12:41:30;;;;;;;8.90;8.30;;;14.10;99.90;;;;;;5075988;28;20455;-80
2023/10/28 12:43:59;;;;;;;9.23;8.73;;;14.10;99.90;;;;;;5079304;28;20463;-81
2023/10/28 12:46:27;;;;;;;9.83;9.40;;;14.10;99.90;;;;;;5083635;28;20447;-78